createdAt,value
2022-10-22T00:00:55.677Z,12.25
2022-10-22T00:03:22.153Z,12.23
2022-10-22T00:05:48.533Z,12.27
2022-10-22T00:08:14.957Z,12.23
2022-10-22T00:10:41.775Z,12.23
2022-10-22T00:13:08.326Z,12.24
2022-10-22T00:15:34.845Z,12.23
2022-10-22T00:18:01.226Z,12.21
2022-10-22T00:20:27.615Z,12.18
2022-10-22T00:22:54.017Z,12.18
2022-10-22T00:25:20.651Z,12.10
2022-10-22T00:27:47.076Z,12.07
2022-10-22T00:30:13.687Z,12.00
2022-10-22T00:32:40.246Z,11.97
2022-10-22T00:35:07.368Z,11.95
2022-10-22T00:37:33.762Z,11.87
2022-10-22T00:40:00.470Z,11.86
2022-10-22T00:42:29.340Z,11.84
2022-10-22T00:45:10.957Z,11.84
2022-10-22T00:47:39.282Z,11.86
2022-10-22T00:50:11.669Z,11.84
2022-10-22T00:52:38.788Z,11.85
2022-10-22T00:55:06.717Z,11.82
2022-10-22T00:57:35.148Z,11.87
2022-10-22T01:00:01.873Z,11.88
2022-10-22T01:02:28.406Z,11.91
2022-10-22T01:04:54.791Z,11.95
2022-10-22T01:07:24.123Z,12.02
2022-10-22T01:10:21.141Z,12.07
2022-10-22T01:13:03.125Z,12.13
2022-10-22T01:15:47.653Z,12.19
2022-10-22T01:18:47.875Z,12.23
2022-10-22T01:21:41.767Z,12.23
2022-10-22T01:24:23.914Z,12.26
2022-10-22T01:27:30.253Z,12.24
2022-10-22T01:30:08.397Z,12.20
2022-10-22T01:32:44.234Z,12.18
2022-10-22T01:35:14.244Z,12.21
2022-10-22T01:37:49.416Z,12.18
2022-10-22T01:40:17.192Z,12.16
2022-10-22T01:43:03.857Z,12.16
2022-10-22T01:45:34.421Z,12.23
2022-10-22T01:48:32.112Z,12.30
2022-10-22T01:51:13.389Z,12.35
2022-10-22T01:54:14.896Z,12.44
2022-10-22T01:57:15.492Z,12.50
2022-10-22T01:59:56.925Z,12.55
2022-10-22T02:02:42.878Z,12.59
2022-10-22T02:05:24.160Z,12.59
2022-10-22T02:07:55.896Z,12.59
2022-10-22T02:10:23.170Z,12.62
2022-10-22T02:12:52.155Z,12.65
2022-10-22T02:15:21.204Z,12.69
2022-10-22T02:17:49.163Z,12.69
2022-10-22T02:20:22.778Z,12.69
2022-10-22T02:22:49.920Z,12.73
2022-10-22T02:25:16.695Z,12.74
2022-10-22T02:27:49.443Z,12.68
2022-10-22T02:30:21.278Z,12.66
2022-10-22T02:33:00.085Z,12.70
2022-10-22T02:35:27.739Z,12.70
2022-10-22T02:37:56.498Z,12.74
2022-10-22T02:40:24.052Z,12.75
2022-10-22T02:42:51.329Z,12.80
2022-10-22T02:45:21.056Z,12.85
2022-10-22T02:47:47.660Z,12.91
2022-10-22T02:50:14.252Z,12.89
2022-10-22T02:52:41.279Z,12.93
2022-10-22T02:55:08.537Z,12.98
2022-10-22T02:57:35.314Z,12.96
2022-10-22T03:00:01.670Z,12.99
2022-10-22T03:02:28.017Z,13.04
2022-10-22T03:04:54.390Z,13.09
2022-10-22T03:07:20.810Z,13.08
2022-10-22T03:09:47.253Z,13.09
2022-10-22T03:12:13.618Z,13.11
2022-10-22T03:14:40.000Z,13.03
2022-10-22T03:17:06.404Z,13.05
2022-10-22T03:19:33.204Z,13.06
2022-10-22T03:22:02.698Z,13.03
2022-10-22T03:24:35.419Z,13.04
2022-10-22T03:27:02.380Z,12.99
2022-10-22T03:29:31.484Z,12.96
2022-10-22T03:31:57.876Z,12.98
2022-10-22T03:34:24.357Z,12.96
2022-10-22T03:36:51.887Z,12.91
2022-10-22T03:39:19.808Z,12.94
2022-10-22T03:41:48.171Z,12.90
2022-10-22T03:44:16.202Z,12.89
2022-10-22T03:46:42.559Z,12.93
2022-10-22T03:49:09.100Z,12.89
2022-10-22T03:51:35.912Z,12.87
2022-10-22T03:54:03.123Z,12.86
2022-10-22T03:56:29.866Z,12.84
2022-10-22T03:58:57.970Z,12.79
2022-10-22T04:01:25.263Z,12.77
2022-10-22T04:03:51.819Z,12.70
2022-10-22T04:06:18.598Z,12.64
2022-10-22T04:08:46.021Z,12.61
2022-10-22T04:11:14.362Z,12.61
2022-10-22T04:13:40.908Z,12.61
2022-10-22T04:16:19.606Z,12.58
2022-10-22T04:18:47.691Z,12.56
2022-10-22T04:21:16.278Z,12.54
2022-10-22T04:23:50.415Z,12.51
2022-10-22T04:26:18.003Z,12.52
2022-10-22T04:28:45.302Z,12.54
2022-10-22T04:31:14.060Z,12.55
2022-10-22T04:33:40.709Z,12.54
2022-10-22T04:36:12.684Z,12.50
2022-10-22T04:38:40.053Z,12.55
2022-10-22T04:41:14.362Z,12.56
2022-10-22T04:43:41.272Z,12.56
2022-10-22T04:46:09.289Z,12.55
2022-10-22T04:48:36.510Z,12.56
2022-10-22T04:51:03.727Z,12.59
2022-10-22T04:53:30.131Z,12.61
2022-10-22T04:56:10.486Z,12.58
2022-10-22T04:58:37.382Z,12.58
2022-10-22T05:01:14.501Z,12.58
2022-10-22T05:03:41.530Z,12.51
2022-10-22T05:06:08.654Z,12.47
2022-10-22T05:08:35.462Z,12.42
2022-10-22T05:11:01.893Z,12.39
2022-10-22T05:13:28.288Z,12.37
2022-10-22T05:15:54.724Z,12.32
2022-10-22T05:18:22.573Z,12.33
2022-10-22T05:20:49.187Z,12.29
2022-10-22T05:23:15.549Z,12.25
2022-10-22T05:25:41.882Z,12.24
2022-10-22T05:28:08.278Z,12.23
2022-10-22T05:30:35.205Z,12.17
2022-10-22T05:33:01.598Z,12.14
2022-10-22T05:35:27.970Z,12.09
2022-10-22T05:37:54.337Z,12.05
2022-10-22T05:40:30.339Z,11.99
2022-10-22T05:42:58.888Z,12.00
2022-10-22T05:45:25.219Z,11.98
2022-10-22T05:47:51.572Z,11.93
2022-10-22T05:50:17.913Z,11.87
2022-10-22T05:52:44.273Z,11.85
2022-10-22T05:55:10.693Z,11.87
2022-10-22T05:57:37.039Z,11.87
2022-10-22T06:00:04.197Z,11.86
2022-10-22T06:02:30.610Z,11.82
2022-10-22T06:04:57.025Z,11.78
2022-10-22T06:07:23.441Z,11.80
2022-10-22T06:09:50.268Z,11.80
2022-10-22T06:12:16.767Z,11.81
2022-10-22T06:14:43.165Z,11.79
2022-10-22T06:17:09.537Z,11.77
2022-10-22T06:19:36.349Z,11.79
2022-10-22T06:22:03.893Z,11.82
2022-10-22T06:24:30.416Z,11.84
2022-10-22T06:26:56.821Z,11.88
2022-10-22T06:29:23.185Z,11.98
2022-10-22T06:31:49.580Z,12.04
2022-10-22T06:34:18.791Z,12.07
2022-10-22T06:36:46.090Z,12.13
2022-10-22T06:39:14.556Z,12.13
2022-10-22T06:41:41.562Z,12.15
2022-10-22T06:44:13.785Z,12.17
2022-10-22T06:46:43.376Z,12.20
2022-10-22T06:49:13.837Z,12.19
2022-10-22T06:51:40.520Z,12.23
2022-10-22T06:54:07.140Z,12.26
2022-10-22T06:56:33.613Z,12.37
2022-10-22T06:59:00.210Z,12.42
2022-10-22T07:01:31.829Z,12.46
2022-10-22T07:03:58.679Z,12.55
2022-10-22T07:06:27.145Z,12.62
2022-10-22T07:08:55.528Z,12.71
2022-10-22T07:11:27.894Z,12.79
2022-10-22T07:13:56.386Z,12.81
2022-10-22T07:16:25.667Z,12.82
2022-10-22T07:18:54.361Z,12.84
2022-10-22T07:21:21.911Z,12.86
2022-10-22T07:23:48.712Z,12.87
2022-10-22T07:26:17.151Z,12.91
2022-10-22T07:28:43.907Z,12.93
2022-10-22T07:31:12.611Z,12.94
2022-10-22T07:33:39.664Z,12.95
2022-10-22T07:36:08.858Z,12.95
2022-10-22T07:38:35.906Z,12.96
2022-10-22T07:41:02.813Z,12.93
2022-10-22T07:43:29.249Z,12.93
2022-10-22T07:45:55.903Z,12.93
2022-10-22T07:48:23.405Z,12.95
2022-10-22T07:50:51.341Z,12.96
2022-10-22T07:53:17.758Z,13.07
2022-10-22T07:55:44.148Z,13.16
2022-10-22T07:58:10.499Z,13.16
2022-10-22T08:00:37.601Z,13.15
2022-10-22T08:03:04.388Z,13.18
2022-10-22T08:05:30.771Z,13.20
2022-10-22T08:07:57.138Z,13.25
2022-10-22T08:10:23.529Z,13.28
2022-10-22T08:12:49.957Z,13.35
2022-10-22T08:15:16.427Z,13.57
2022-10-22T08:17:43.161Z,13.74
2022-10-22T08:20:10.322Z,14.01
2022-10-22T08:22:36.753Z,14.17
2022-10-22T08:25:03.585Z,14.26
2022-10-22T08:27:29.973Z,14.28
2022-10-22T08:29:56.415Z,14.29
2022-10-22T08:32:22.920Z,14.26
2022-10-22T08:34:49.420Z,14.36
2022-10-22T08:37:17.083Z,14.47
2022-10-22T08:39:44.305Z,14.54
2022-10-22T08:42:32.990Z,14.65
2022-10-22T08:45:12.551Z,14.64
2022-10-22T08:48:23.962Z,14.65
2022-10-22T08:50:54.414Z,14.96
2022-10-22T08:53:38.443Z,15.24
2022-10-22T08:56:05.173Z,15.22
2022-10-22T08:58:48.145Z,15.31
2022-10-22T09:01:20.926Z,15.20
2022-10-22T09:03:53.236Z,15.22
2022-10-22T09:06:24.010Z,15.23
2022-10-22T09:08:51.719Z,15.18
2022-10-22T09:11:32.317Z,15.26
2022-10-22T09:13:59.990Z,15.19
2022-10-22T09:16:42.921Z,14.87
2022-10-22T09:19:29.616Z,14.57
2022-10-22T09:22:14.428Z,14.46
2022-10-22T09:24:49.390Z,14.30
2022-10-22T09:27:27.324Z,14.21
2022-10-22T09:29:53.763Z,14.16
2022-10-22T09:32:20.446Z,14.16
2022-10-22T09:34:48.637Z,14.19
2022-10-22T09:37:18.924Z,14.24
2022-10-22T09:39:48.388Z,14.32
2022-10-22T09:42:16.850Z,14.46
2022-10-22T09:44:46.238Z,14.66
2022-10-22T09:47:43.381Z,14.83
2022-10-22T09:50:22.475Z,15.06
2022-10-22T09:53:11.729Z,15.16
2022-10-22T09:55:42.730Z,15.22
2022-10-22T09:58:14.266Z,15.31
2022-10-22T10:00:43.713Z,15.45
2022-10-22T10:03:18.068Z,15.49
2022-10-22T10:05:46.857Z,15.57
2022-10-22T10:08:15.586Z,15.56
2022-10-22T10:10:48.057Z,15.50
2022-10-22T10:13:23.415Z,15.62
2022-10-22T10:16:01.921Z,15.77
2022-10-22T10:18:43.688Z,15.88
2022-10-22T10:21:24.025Z,15.83
2022-10-22T10:23:57.947Z,15.79
2022-10-22T10:26:38.535Z,15.71
2022-10-22T10:29:04.904Z,15.71
2022-10-22T10:31:42.635Z,15.78
2022-10-22T10:34:26.665Z,16.01
2022-10-22T10:36:59.155Z,16.21
2022-10-22T10:39:25.516Z,16.38
2022-10-22T10:42:27.379Z,16.59
2022-10-22T10:45:07.996Z,16.62
2022-10-22T10:48:00.615Z,16.62
2022-10-22T10:50:34.844Z,16.48
2022-10-22T10:53:17.472Z,16.30
2022-10-22T10:55:59.869Z,16.23
2022-10-22T10:59:11.342Z,16.30
2022-10-22T11:01:49.978Z,16.32
2022-10-22T11:04:46.326Z,16.31
2022-10-22T11:07:34.108Z,16.32
2022-10-22T11:10:26.201Z,16.60
2022-10-22T11:12:58.980Z,17.00
2022-10-22T11:15:32.410Z,17.15
2022-10-22T11:18:23.911Z,16.79
2022-10-22T11:20:57.996Z,16.63
2022-10-22T11:23:37.998Z,16.58
2022-10-22T11:26:11.376Z,16.60
2022-10-22T11:28:43.801Z,16.97
2022-10-22T11:31:16.160Z,17.05
2022-10-22T11:34:09.794Z,16.95
2022-10-22T11:36:37.431Z,17.09
2022-10-22T11:39:04.978Z,17.31
2022-10-22T11:41:33.389Z,17.37
2022-10-22T11:44:11.733Z,17.55
2022-10-22T11:46:53.717Z,17.49
2022-10-22T11:49:42.769Z,17.03
2022-10-22T11:52:40.848Z,17.05
2022-10-22T11:55:45.968Z,16.94
2022-10-22T11:58:33.118Z,16.63
2022-10-22T12:01:02.572Z,16.69
2022-10-22T12:03:31.875Z,16.75
2022-10-22T12:06:20.612Z,17.36
2022-10-22T12:08:50.432Z,17.15
2022-10-22T12:11:36.356Z,17.17
2022-10-22T12:14:19.668Z,17.04
2022-10-22T12:17:14.141Z,17.67
2022-10-22T12:19:43.374Z,18.25
2022-10-22T12:22:21.535Z,18.28
2022-10-22T12:24:53.816Z,18.29
2022-10-22T12:27:24.097Z,17.93
2022-10-22T12:29:58.641Z,18.09
2022-10-22T12:32:45.936Z,18.75
2022-10-22T12:35:18.562Z,19.10
2022-10-22T12:37:45.549Z,19.45
2022-10-22T12:40:34.062Z,20.07
2022-10-22T12:43:07.408Z,19.82
2022-10-22T12:45:35.732Z,19.19
2022-10-22T12:48:05.795Z,19.72
2022-10-22T12:50:41.197Z,20.22
2022-10-22T12:53:28.218Z,20.50
2022-10-22T12:55:57.602Z,19.97
2022-10-22T12:58:33.592Z,19.79
2022-10-22T13:01:02.185Z,19.24
2022-10-22T13:03:30.528Z,20.17
2022-10-22T13:05:56.957Z,19.73
2022-10-22T13:08:27.877Z,17.93
2022-10-22T13:10:55.348Z,17.03
2022-10-22T13:13:42.405Z,17.15
2022-10-22T13:16:17.693Z,19.24
2022-10-22T13:18:45.057Z,20.28
2022-10-22T13:21:40.839Z,20.91
2022-10-22T13:24:22.089Z,20.97
2022-10-22T13:26:54.194Z,21.14
2022-10-22T13:29:22.493Z,20.48
2022-10-22T13:31:53.925Z,19.39
2022-10-22T13:34:23.295Z,17.53
2022-10-22T13:36:50.601Z,16.82
2022-10-22T13:39:20.012Z,18.08
2022-10-22T13:41:46.716Z,19.56
2022-10-22T13:44:13.124Z,19.51
2022-10-22T13:46:42.676Z,20.39
2022-10-22T13:49:17.949Z,20.71
2022-10-22T13:51:44.902Z,20.93
2022-10-22T13:54:20.872Z,21.02
2022-10-22T13:56:47.257Z,21.48
2022-10-22T13:59:14.643Z,22.02
2022-10-22T14:01:42.131Z,22.21
2022-10-22T14:04:13.592Z,21.31
2022-10-22T14:06:39.970Z,21.34
2022-10-22T14:09:11.005Z,21.10
2022-10-22T14:11:37.487Z,20.61
2022-10-22T14:14:08.522Z,20.24
2022-10-22T14:16:35.132Z,20.04
2022-10-22T14:19:03.201Z,20.32
2022-10-22T14:21:34.966Z,19.80
2022-10-22T14:24:01.341Z,19.20
2022-10-22T14:26:32.923Z,19.02
2022-10-22T14:29:15.953Z,18.67
2022-10-22T14:31:44.356Z,17.72
2022-10-22T14:34:13.085Z,16.87
2022-10-22T14:36:39.649Z,16.21
2022-10-22T14:39:06.043Z,15.91
2022-10-22T14:41:32.484Z,15.78
2022-10-22T14:43:59.773Z,15.68
2022-10-22T14:46:26.314Z,15.60
2022-10-22T14:48:52.723Z,15.50
2022-10-22T14:51:21.209Z,15.45
2022-10-22T14:53:48.032Z,15.44
2022-10-22T14:56:16.845Z,15.45
2022-10-22T14:58:43.661Z,15.37
2022-10-22T15:01:10.130Z,15.34
2022-10-22T15:03:36.733Z,15.31
2022-10-22T15:06:03.819Z,15.29
2022-10-22T15:08:30.713Z,15.29
2022-10-22T15:11:07.356Z,15.29
2022-10-22T15:13:34.151Z,15.32
2022-10-22T15:16:01.485Z,15.33
2022-10-22T15:18:28.550Z,15.31
2022-10-22T15:21:04.482Z,15.26
2022-10-22T15:23:30.935Z,15.21
2022-10-22T15:25:57.404Z,15.16
2022-10-22T15:28:24.567Z,15.18
2022-10-22T15:30:59.221Z,15.22
2022-10-22T15:33:26.812Z,15.26
2022-10-22T15:35:53.438Z,15.20
2022-10-22T15:38:20.765Z,15.18
2022-10-22T15:40:47.248Z,15.17
2022-10-22T15:43:13.957Z,15.16
2022-10-22T15:45:40.394Z,15.07
2022-10-22T15:48:06.738Z,14.94
2022-10-22T15:50:37.987Z,14.83
2022-10-22T15:53:04.744Z,14.76
2022-10-22T15:55:31.401Z,14.71
2022-10-22T15:57:59.394Z,14.61
2022-10-22T16:00:28.485Z,14.53
2022-10-22T16:02:55.121Z,14.41
2022-10-22T16:05:21.585Z,14.30
2022-10-22T16:07:48.000Z,14.25
2022-10-22T16:10:14.714Z,14.17
2022-10-22T16:12:41.532Z,14.09
2022-10-22T16:15:09.169Z,14.03
2022-10-22T16:17:35.732Z,13.96
2022-10-22T16:20:02.187Z,13.86
2022-10-22T16:22:28.614Z,13.82
2022-10-22T16:24:54.966Z,13.74
2022-10-22T16:27:21.329Z,13.67
2022-10-22T16:29:47.734Z,13.63
2022-10-22T16:32:16.144Z,13.54
2022-10-22T16:34:42.493Z,13.43
2022-10-22T16:37:10.232Z,13.50
2022-10-22T16:39:37.357Z,13.47
2022-10-22T16:42:04.089Z,13.41
2022-10-22T16:44:30.471Z,13.39
2022-10-22T16:46:56.838Z,13.39
2022-10-22T16:49:23.267Z,13.35
2022-10-22T16:51:49.691Z,13.25
2022-10-22T16:54:16.907Z,13.21
2022-10-22T16:56:43.238Z,13.16
2022-10-22T16:59:09.578Z,13.13
2022-10-22T17:01:40.665Z,13.16
2022-10-22T17:04:08.359Z,13.10
2022-10-22T17:06:34.739Z,13.14
2022-10-22T17:09:01.282Z,13.08
2022-10-22T17:11:30.125Z,13.02
2022-10-22T17:13:56.714Z,13.09
2022-10-22T17:16:24.875Z,12.99
2022-10-22T17:18:54.243Z,12.95
2022-10-22T17:21:21.502Z,12.99
2022-10-22T17:23:48.482Z,12.97
2022-10-22T17:26:20.874Z,12.94
2022-10-22T17:28:48.710Z,12.86
2022-10-22T17:31:17.224Z,12.79
2022-10-22T17:33:44.566Z,12.73
2022-10-22T17:36:12.776Z,12.67
2022-10-22T17:38:42.856Z,12.62
2022-10-22T17:41:14.542Z,12.66
2022-10-22T17:43:41.262Z,12.63
2022-10-22T17:46:13.049Z,12.62
2022-10-22T17:48:39.446Z,12.62
2022-10-22T17:51:07.630Z,12.56
2022-10-22T17:53:34.081Z,12.52
2022-10-22T17:56:02.323Z,12.48
2022-10-22T17:58:31.547Z,12.44
2022-10-22T18:00:58.520Z,12.38
2022-10-22T18:03:25.012Z,12.30
2022-10-22T18:05:51.379Z,12.25
2022-10-22T18:08:17.735Z,12.21
2022-10-22T18:10:44.126Z,12.17
2022-10-22T18:13:10.664Z,12.18
2022-10-22T18:15:37.291Z,12.19
2022-10-22T18:18:04.037Z,12.19
2022-10-22T18:20:31.020Z,12.20
2022-10-22T18:22:57.433Z,12.29
2022-10-22T18:25:23.883Z,12.32
2022-10-22T18:27:50.341Z,12.32
2022-10-22T18:30:16.761Z,12.26
2022-10-22T18:32:43.142Z,12.18
2022-10-22T18:35:09.530Z,12.10
2022-10-22T18:37:36.427Z,12.06
2022-10-22T18:40:03.541Z,12.00
2022-10-22T18:42:32.844Z,11.98
2022-10-22T18:45:01.030Z,11.95
2022-10-22T18:47:27.397Z,11.95
2022-10-22T18:49:53.798Z,11.92
2022-10-22T18:52:20.189Z,11.93
2022-10-22T18:54:46.648Z,11.93
2022-10-22T18:57:13.036Z,11.90
2022-10-22T18:59:39.936Z,11.89
2022-10-22T19:02:06.370Z,11.88
2022-10-22T19:04:37.096Z,11.87
2022-10-22T19:07:07.339Z,11.83
2022-10-22T19:09:33.861Z,11.83
2022-10-22T19:12:01.010Z,11.80
2022-10-22T19:14:27.421Z,11.84
2022-10-22T19:16:53.833Z,11.81
2022-10-22T19:19:21.924Z,11.75
2022-10-22T19:21:48.933Z,11.70
2022-10-22T19:24:16.734Z,11.67
2022-10-22T19:26:43.193Z,11.64
2022-10-22T19:29:10.945Z,11.62
2022-10-22T19:31:38.129Z,11.61
2022-10-22T19:34:04.863Z,11.55
2022-10-22T19:36:32.621Z,11.53
2022-10-22T19:38:59.802Z,11.49
2022-10-22T19:41:28.698Z,11.48
2022-10-22T19:43:57.038Z,11.51
2022-10-22T19:46:25.693Z,11.52
2022-10-22T19:48:52.782Z,11.52
2022-10-22T19:51:22.090Z,11.51
2022-10-22T19:53:49.501Z,11.51
2022-10-22T19:56:20.717Z,11.54
2022-10-22T19:58:47.331Z,11.54
2022-10-22T20:01:16.876Z,11.61
2022-10-22T20:03:43.557Z,11.60
2022-10-22T20:06:12.213Z,11.61
2022-10-22T20:08:39.548Z,11.63
2022-10-22T20:11:10.599Z,11.60
2022-10-22T20:16:09.389Z,11.62
2022-10-22T20:18:36.358Z,11.62
2022-10-22T20:21:07.322Z,11.58
2022-10-22T20:23:34.258Z,11.55
2022-10-22T20:26:00.782Z,11.52
2022-10-22T20:28:27.487Z,11.46
2022-10-22T20:30:53.930Z,11.43
2022-10-22T20:33:20.411Z,11.39
2022-10-22T20:35:46.910Z,11.34
2022-10-22T20:38:14.861Z,11.29
2022-10-22T20:40:41.600Z,11.24
2022-10-22T20:43:10.540Z,11.22
2022-10-22T20:45:38.786Z,11.19
2022-10-22T20:48:05.921Z,11.14
2022-10-22T20:50:32.726Z,11.10
2022-10-22T20:52:59.339Z,11.12
2022-10-22T20:55:26.861Z,11.10
2022-10-22T20:57:53.608Z,11.07
2022-10-22T21:00:20.204Z,11.02
2022-10-22T21:02:46.715Z,10.96
2022-10-22T21:05:13.170Z,10.95
2022-10-22T21:07:39.922Z,10.93
2022-10-22T21:10:06.984Z,10.94
2022-10-22T21:12:33.416Z,10.94
2022-10-22T21:14:59.888Z,10.95
2022-10-22T21:17:26.688Z,10.93
2022-10-22T21:19:53.181Z,10.97
2022-10-22T21:22:19.582Z,10.99
2022-10-22T21:24:45.956Z,10.97
2022-10-22T21:27:12.349Z,10.92
2022-10-22T21:29:38.722Z,10.90
2022-10-22T21:32:05.276Z,10.86
2022-10-22T21:34:35.475Z,10.82
2022-10-22T21:37:05.151Z,10.74
2022-10-22T21:39:31.517Z,10.70
2022-10-22T21:41:57.878Z,10.66
2022-10-22T21:44:24.242Z,10.61
2022-10-22T21:46:50.664Z,10.56
2022-10-22T21:49:17.048Z,10.53
2022-10-22T21:51:43.824Z,10.53
2022-10-22T21:54:12.500Z,10.52
2022-10-22T21:56:39.362Z,10.50
2022-10-22T21:59:07.261Z,10.50
2022-10-22T22:01:34.687Z,10.48
2022-10-22T22:04:01.519Z,10.47
2022-10-22T22:06:33.084Z,10.47
2022-10-22T22:09:00.097Z,10.44
2022-10-22T22:11:27.944Z,10.41
2022-10-22T22:13:55.703Z,10.40
2022-10-22T22:16:28.913Z,10.39
2022-10-22T22:18:57.781Z,10.39
2022-10-22T22:21:24.228Z,10.39
2022-10-22T22:23:51.192Z,10.38
2022-10-22T22:26:25.229Z,10.36
2022-10-22T22:28:55.854Z,10.32
2022-10-22T22:31:25.529Z,10.28
2022-10-22T22:33:58.708Z,10.26
2022-10-22T22:36:25.152Z,10.23
2022-10-22T22:38:55.553Z,10.23
2022-10-22T22:41:22.193Z,10.25
2022-10-22T22:43:48.921Z,10.23
2022-10-22T22:46:15.675Z,10.24
2022-10-22T22:48:42.257Z,10.28
2022-10-22T22:51:10.018Z,10.32
2022-10-22T22:53:36.447Z,10.33
2022-10-22T22:56:16.744Z,10.33
2022-10-22T22:58:43.314Z,10.36
2022-10-22T23:01:23.640Z,10.43
2022-10-22T23:04:02.706Z,10.45
2022-10-22T23:06:33.683Z,10.44
2022-10-22T23:09:00.751Z,10.46
2022-10-22T23:11:27.893Z,10.45
2022-10-22T23:13:57.218Z,10.45
2022-10-22T23:16:26.277Z,10.43
2022-10-22T23:18:54.577Z,10.44
2022-10-22T23:21:24.978Z,10.41
2022-10-22T23:23:54.195Z,10.37
2022-10-22T23:26:24.653Z,10.33
2022-10-22T23:28:51.402Z,10.32
2022-10-22T23:31:19.218Z,10.28
2022-10-22T23:33:46.131Z,10.28
2022-10-22T23:36:12.856Z,10.25
2022-10-22T23:38:40.733Z,10.22
2022-10-22T23:41:07.680Z,10.21
2022-10-22T23:43:37.850Z,10.13
2022-10-22T23:46:06.774Z,10.08
2022-10-22T23:48:33.969Z,10.05
2022-10-22T23:51:07.511Z,10.02
2022-10-22T23:53:33.876Z,10.02
2022-10-22T23:56:04.933Z,9.98
2022-10-22T23:58:31.386Z,9.95
